Time;durP1;ratioP1;P1;durP2;ratioP2;P2;SDS_P1;SDS_P2;PMS_P1;PMS_P2;Temp;Humidity;BMP_temperature;BMP_pressure;BME280_temperature;BME280_humidity;BME280_pressure;Samples;Min_cycle;Max_cycle;Signal;HPM_P1;HPM_P2
2021/01/24 00:00:47;;;;;;;13.40;6.45;;;;;;;;;;5093358;28;20136;-63
2021/01/24 00:03:13;;;;;;;13.52;5.38;;;;;;;;;;5092758;28;20027;-63
2021/01/24 00:05:41;;;;;;;8.15;4.47;;;;;;;;;;5108763;28;20024;-63
2021/01/24 00:08:07;;;;;;;8.30;3.75;;;;;;;;;;5092833;28;20052;-63
2021/01/24 00:10:33;;;;;;;7.13;3.15;;;;;;;;;;5092568;28;20021;-63
2021/01/24 00:12:59;;;;;;;8.73;5.20;;;;;;;;;;5092833;28;20153;-63
2021/01/24 00:15:25;;;;;;;9.63;5.03;;;;;;;;;;5093012;28;20027;-63
2021/01/24 00:17:52;;;;;;;7.40;3.70;;;;;;;;;;5108307;28;20039;-63
2021/01/24 00:20:18;;;;;;;13.10;5.40;;;;;;;;;;5092889;28;20526;-63
2021/01/24 00:22:44;;;;;;;8.15;4.30;;;;;;;;;;5092743;28;20016;-63
2021/01/24 00:25:10;;;;;;;6.57;3.42;;;;;;;;;;5108074;28;20030;-62
2021/01/24 00:27:36;;;;;;;8.43;3.47;;;;;;;;;;5092652;28;20505;-63
2021/01/24 00:30:06;;;;;;;13.63;7.53;;;;;;;;;;5092697;28;20369;-62
2021/01/24 00:32:32;;;;;;;13.18;6.65;;;;;;;;;;5092266;28;20031;-62
2021/01/24 00:34:59;;;;;;;13.75;6.68;;;;;;;;;;5108296;28;20031;-63
2021/01/24 00:37:25;;;;;;;13.15;5.20;;;;;;;;;;5092430;28;20031;-63
2021/01/24 00:39:51;;;;;;;11.52;4.13;;;;;;;;;;5092685;28;20495;-63
2021/01/24 00:42:17;;;;;;;20.17;8.25;;;;;;;;;;5092535;28;20044;-63
2021/01/24 00:44:43;;;;;;;10.35;5.30;;;;;;;;;;5091966;28;20035;-66
2021/01/24 00:47:10;;;;;;;10.23;4.18;;;;;;;;;;5092474;28;20047;-63
2021/01/24 00:49:36;;;;;;;6.30;3.38;;;;;;;;;;5092527;28;20369;-63
2021/01/24 00:52:03;;;;;;;6.95;2.95;;;;;;;;;;5108098;28;20530;-63
2021/01/24 00:54:29;;;;;;;4.65;2.55;;;;;;;;;;5092576;28;20024;-63
2021/01/24 00:56:55;;;;;;;8.82;3.80;;;;;;;;;;5092425;28;20020;-63
2021/01/24 00:59:21;;;;;;;22.17;11.43;;;;;;;;;;5107718;28;20020;-63
2021/01/24 01:01:47;;;;;;;20.60;12.45;;;;;;;;;;5092392;28;20024;-63
2021/01/24 01:04:14;;;;;;;25.55;14.23;;;;;;;;;;5092251;28;20051;-62
2021/01/24 01:06:40;;;;;;;24.15;13.75;;;;;;;;;;5091765;28;20031;-62
2021/01/24 01:09:06;;;;;;;18.08;11.65;;;;;;;;;;5092380;28;20403;-63
2021/01/24 01:11:32;;;;;;;11.38;5.90;;;;;;;;;;5091041;28;20020;-63
2021/01/24 01:13:58;;;;;;;11.95;4.97;;;;;;;;;;5092124;28;20062;-63
2021/01/24 01:16:24;;;;;;;11.85;5.20;;;;;;;;;;5092260;28;20107;-63
2021/01/24 01:18:51;;;;;;;13.77;7.28;;;;;;;;;;5092194;28;20021;-63
2021/01/24 01:21:17;;;;;;;13.20;7.10;;;;;;;;;;5107471;28;20031;-62
2021/01/24 01:23:43;;;;;;;11.90;7.18;;;;;;;;;;5107739;28;20438;-62
2021/01/24 01:26:09;;;;;;;11.55;6.78;;;;;;;;;;5092033;28;20031;-62
2021/01/24 01:28:35;;;;;;;12.65;7.07;;;;;;;;;;5107208;28;20024;-63
2021/01/24 01:31:02;;;;;;;9.63;4.30;;;;;;;;;;5092079;28;20020;-63
2021/01/24 01:33:29;;;;;;;8.68;4.35;;;;;;;;;;5092200;28;20020;-63
2021/01/24 01:35:55;;;;;;;10.95;5.28;;;;;;;;;;5091651;28;20024;-63
2021/01/24 01:38:21;;;;;;;17.92;9.23;;;;;;;;;;5107564;28;20023;-63
2021/01/24 01:40:47;;;;;;;16.45;8.40;;;;;;;;;;5091504;28;20077;-63
2021/01/24 01:43:13;;;;;;;17.23;10.43;;;;;;;;;;5091937;28;20072;-62
2021/01/24 01:45:39;;;;;;;31.65;15.80;;;;;;;;;;5092135;28;20028;-62
2021/01/24 01:48:06;;;;;;;26.75;13.38;;;;;;;;;;5091228;28;20050;-63
2021/01/24 01:50:32;;;;;;;26.15;12.20;;;;;;;;;;5092073;28;20089;-63
2021/01/24 01:53:01;;;;;;;26.13;13.43;;;;;;;;;;5090706;28;20560;-63
2021/01/24 01:55:28;;;;;;;30.15;15.95;;;;;;;;;;5092113;28;20431;-63
2021/01/24 01:57:58;;;;;;;33.00;18.20;;;;;;;;;;5095482;28;20073;-63
2021/01/24 02:00:24;;;;;;;25.15;13.63;;;;;;;;;;5095352;28;20020;-62
2021/01/24 02:03:09;;;;;;;13.57;6.47;;;;;;;;;;5093717;28;20024;-62
2021/01/24 02:05:54;;;;;;;9.02;4.00;;;;;;;;;;5095369;28;20025;-62
2021/01/24 02:08:28;;;;;;;6.20;2.95;;;;;;;;;;5095202;28;20379;-63
2021/01/24 02:10:54;;;;;;;10.45;2.70;;;;;;;;;;5094954;28;20047;-62
2021/01/24 02:13:46;;;;;;;6.38;2.58;;;;;;;;;;5095462;28;20024;-62
2021/01/24 02:16:15;;;;;;;6.88;2.95;;;;;;;;;;5093656;28;20032;-62
2021/01/24 02:18:43;;;;;;;6.07;3.25;;;;;;;;;;5095366;28;20020;-62
2021/01/24 02:21:29;;;;;;;8.10;3.72;;;;;;;;;;5094978;28;20486;-62
2021/01/24 02:23:56;;;;;;;10.60;3.47;;;;;;;;;;5094627;28;20024;-62
2021/01/24 02:26:28;;;;;;;9.48;4.55;;;;;;;;;;5094902;28;20093;-62
2021/01/24 02:29:13;;;;;;;8.98;4.20;;;;;;;;;;5094732;28;20046;-62
2021/01/24 02:31:40;;;;;;;11.63;5.97;;;;;;;;;;5110334;28;20035;-62
2021/01/24 02:34:08;;;;;;;11.50;5.57;;;;;;;;;;5094956;28;20055;-63
2021/01/24 02:36:34;;;;;;;11.05;5.15;;;;;;;;;;5094773;28;20020;-63
2021/01/24 02:39:02;;;;;;;7.72;3.90;;;;;;;;;;5094559;28;20021;-62
2021/01/24 02:41:28;;;;;;;8.63;4.28;;;;;;;;;;5094557;28;20032;-63
2021/01/24 02:43:54;;;;;;;23.48;10.38;;;;;;;;;;5110291;28;20028;-62
2021/01/24 02:46:21;;;;;;;30.27;11.65;;;;;;;;;;5094414;28;20027;-62
2021/01/24 02:48:48;;;;;;;19.23;7.63;;;;;;;;;;5094274;28;20056;-63
2021/01/24 02:51:14;;;;;;;25.15;11.05;;;;;;;;;;5094426;28;20032;-63
2021/01/24 02:53:41;;;;;;;19.05;8.18;;;;;;;;;;5094712;28;20425;-63
2021/01/24 02:56:08;;;;;;;17.40;7.15;;;;;;;;;;5094419;28;20091;-63
2021/01/24 02:58:34;;;;;;;12.63;5.63;;;;;;;;;;5093940;28;20023;-63
2021/01/24 03:01:00;;;;;;;28.38;12.75;;;;;;;;;;5094345;28;20380;-62
2021/01/24 03:03:26;;;;;;;16.65;7.78;;;;;;;;;;5094263;28;20039;-62
2021/01/24 03:05:52;;;;;;;16.75;7.75;;;;;;;;;;5109424;28;20480;-63
2021/01/24 03:08:19;;;;;;;21.08;10.23;;;;;;;;;;5094006;28;20032;-62
2021/01/24 03:10:46;;;;;;;24.25;11.88;;;;;;;;;;5094127;28;20032;-62
2021/01/24 03:13:28;;;;;;;15.60;5.25;;;;;;;;;;5093869;28;20025;-62
2021/01/24 03:15:55;;;;;;;15.43;6.85;;;;;;;;;;5094031;28;20020;-62
2021/01/24 03:18:24;;;;;;;26.00;11.45;;;;;;;;;;5109551;28;20028;-62
2021/01/24 03:20:51;;;;;;;21.58;9.00;;;;;;;;;;5093570;28;20047;-62
2021/01/24 03:23:17;;;;;;;15.93;7.18;;;;;;;;;;5093923;28;20464;-62
2021/01/24 03:25:44;;;;;;;16.90;8.30;;;;;;;;;;5093727;28;20024;-62
2021/01/24 03:28:11;;;;;;;17.38;7.68;;;;;;;;;;5093231;28;20034;-63
2021/01/24 03:30:37;;;;;;;15.80;8.63;;;;;;;;;;5093690;28;20103;-62
2021/01/24 03:33:04;;;;;;;12.70;5.07;;;;;;;;;;5093828;28;20022;-62
2021/01/24 03:35:30;;;;;;;10.15;4.80;;;;;;;;;;5093343;28;20032;-62
2021/01/24 03:37:56;;;;;;;11.13;4.72;;;;;;;;;;5109200;28;20049;-62
2021/01/24 03:40:23;;;;;;;13.30;5.97;;;;;;;;;;5093064;28;20027;-62
2021/01/24 03:42:49;;;;;;;12.75;5.00;;;;;;;;;;5109183;28;20020;-62
2021/01/24 03:45:15;;;;;;;15.95;5.57;;;;;;;;;;5093379;28;20028;-62
2021/01/24 03:47:42;;;;;;;11.10;4.00;;;;;;;;;;5092736;28;20078;-62
2021/01/24 03:50:08;;;;;;;13.57;7.88;;;;;;;;;;5093313;28;20028;-62
2021/01/24 03:52:34;;;;;;;18.35;8.82;;;;;;;;;;5093334;28;20012;-63
2021/01/24 03:55:01;;;;;;;15.02;7.40;;;;;;;;;;5093149;28;20099;-63
2021/01/24 03:57:27;;;;;;;17.50;5.97;;;;;;;;;;5108957;28;20483;-63
2021/01/24 03:59:54;;;;;;;18.45;7.68;;;;;;;;;;5093289;28;20095;-63
2021/01/24 04:02:20;;;;;;;15.25;7.68;;;;;;;;;;5092910;28;20035;-63
2021/01/24 04:04:47;;;;;;;8.70;4.35;;;;;;;;;;5093057;28;20016;-63
2021/01/24 04:07:13;;;;;;;12.52;4.93;;;;;;;;;;5092936;28;20070;-63
2021/01/24 04:09:39;;;;;;;7.93;3.67;;;;;;;;;;5108234;28;20028;-62
2021/01/24 04:12:06;;;;;;;5.88;2.40;;;;;;;;;;5093102;28;20028;-63
2021/01/24 04:14:33;;;;;;;3.83;2.20;;;;;;;;;;5108824;28;20024;-62
2021/01/24 04:16:59;;;;;;;7.82;3.30;;;;;;;;;;5108064;28;20031;-63
2021/01/24 04:19:25;;;;;;;8.32;4.28;;;;;;;;;;5092362;28;20027;-62
2021/01/24 04:21:51;;;;;;;13.88;6.95;;;;;;;;;;5092854;28;20471;-63
2021/01/24 04:24:17;;;;;;;14.75;6.10;;;;;;;;;;5107995;28;20486;-63
2021/01/24 04:26:44;;;;;;;9.30;4.60;;;;;;;;;;5092733;28;20062;-62
2021/01/24 04:29:10;;;;;;;11.88;5.63;;;;;;;;;;5092471;28;20556;-63
2021/01/24 04:31:36;;;;;;;17.33;7.97;;;;;;;;;;5092399;28;20048;-62
2021/01/24 04:34:02;;;;;;;22.63;12.07;;;;;;;;;;5093063;28;20091;-62
2021/01/24 04:36:28;;;;;;;24.50;10.73;;;;;;;;;;5092174;28;20103;-62
2021/01/24 04:38:55;;;;;;;16.05;7.13;;;;;;;;;;5092848;28;20043;-62
2021/01/24 04:41:21;;;;;;;9.90;5.00;;;;;;;;;;5108248;28;20107;-62
2021/01/24 04:43:47;;;;;;;10.27;4.50;;;;;;;;;;5092124;28;20028;-63
2021/01/24 04:46:14;;;;;;;12.85;5.93;;;;;;;;;;5092414;28;20025;-62
2021/01/24 04:48:40;;;;;;;9.95;5.30;;;;;;;;;;5092186;28;20047;-62
2021/01/24 04:51:06;;;;;;;14.43;7.78;;;;;;;;;;5107765;28;20103;-63
2021/01/24 04:53:33;;;;;;;13.88;6.18;;;;;;;;;;5092603;28;20027;-63
2021/01/24 04:56:00;;;;;;;11.35;6.30;;;;;;;;;;5092425;28;20521;-62
2021/01/24 04:58:26;;;;;;;28.60;15.75;;;;;;;;;;5091933;28;20016;-62
2021/01/24 05:00:53;;;;;;;30.10;16.98;;;;;;;;;;5092261;28;20028;-62
2021/01/24 05:03:19;;;;;;;29.52;14.60;;;;;;;;;;5092342;28;20052;-62
2021/01/24 05:05:45;;;;;;;22.00;11.35;;;;;;;;;;5091917;28;20091;-62
2021/01/24 05:08:11;;;;;;;24.15;11.45;;;;;;;;;;5090866;28;20032;-63
2021/01/24 05:10:38;;;;;;;26.40;12.00;;;;;;;;;;5092137;28;20022;-63
2021/01/24 05:13:05;;;;;;;17.75;10.00;;;;;;;;;;5090701;28;20427;-62
2021/01/24 05:15:31;;;;;;;12.00;6.32;;;;;;;;;;5092502;28;20506;-62
2021/01/24 05:17:58;;;;;;;16.67;8.18;;;;;;;;;;5092191;28;20433;-62
2021/01/24 05:20:28;;;;;;;22.98;11.35;;;;;;;;;;5091780;28;20503;-62
2021/01/24 05:22:59;;;;;;;15.50;7.65;;;;;;;;;;5092216;28;20476;-62
2021/01/24 05:25:32;;;;;;;15.25;7.53;;;;;;;;;;5107872;28;20031;-62
2021/01/24 05:27:58;;;;;;;15.35;7.53;;;;;;;;;;5091688;28;20838;-62
2021/01/24 05:30:33;;;;;;;17.02;8.40;;;;;;;;;;5092577;28;20032;-62
2021/01/24 05:33:00;;;;;;;14.43;7.25;;;;;;;;;;5095955;28;20020;-63
2021/01/24 05:35:27;;;;;;;15.00;5.47;;;;;;;;;;5096097;28;20103;-62
2021/01/24 05:37:53;;;;;;;19.48;8.50;;;;;;;;;;5111589;28;20503;-62
2021/01/24 05:40:20;;;;;;;28.10;12.48;;;;;;;;;;5095421;28;20066;-62
2021/01/24 05:42:46;;;;;;;22.40;10.93;;;;;;;;;;5095775;28;20531;-62
2021/01/24 05:45:17;;;;;;;30.58;14.15;;;;;;;;;;5095735;28;20031;-62
2021/01/24 05:47:44;;;;;;;64.00;28.83;;;;;;;;;;5095099;28;20044;-62
2021/01/24 05:50:14;;;;;;;34.45;17.20;;;;;;;;;;5095583;28;20024;-62
2021/01/24 05:52:41;;;;;;;29.50;14.18;;;;;;;;;;5094345;28;20028;-62
2021/01/24 05:55:08;;;;;;;18.63;9.43;;;;;;;;;;5094049;28;20026;-62
2021/01/24 05:57:40;;;;;;;30.70;16.85;;;;;;;;;;5111250;28;20074;-62
2021/01/24 06:00:06;;;;;;;38.60;21.40;;;;;;;;;;5095500;28;20077;-62
2021/01/24 06:02:33;;;;;;;51.63;23.75;;;;;;;;;;5095317;28;20016;-63
2021/01/24 06:04:59;;;;;;;45.80;24.98;;;;;;;;;;5095451;28;20099;-61
2021/01/24 06:07:25;;;;;;;63.00;32.33;;;;;;;;;;5095302;28;20051;-62
2021/01/24 06:09:52;;;;;;;54.33;26.30;;;;;;;;;;5094863;28;20081;-62
2021/01/24 06:12:21;;;;;;;57.63;29.10;;;;;;;;;;5094007;28;20708;-62
2021/01/24 06:14:48;;;;;;;54.05;27.13;;;;;;;;;;5095336;28;20533;-62
2021/01/24 06:17:34;;;;;;;45.75;23.92;;;;;;;;;;5094848;28;20016;-62
2021/01/24 06:20:01;;;;;;;63.78;33.53;;;;;;;;;;5095085;28;20043;-61
2021/01/24 06:22:32;;;;;;;62.47;33.28;;;;;;;;;;5094605;28;20024;-61
2021/01/24 06:24:59;;;;;;;62.63;33.42;;;;;;;;;;5095007;28;20039;-61
2021/01/24 06:27:27;;;;;;;64.10;34.63;;;;;;;;;;5094949;28;20031;-61
2021/01/24 06:29:55;;;;;;;64.05;31.50;;;;;;;;;;5094416;28;20032;-61
2021/01/24 06:32:28;;;;;;;53.90;26.17;;;;;;;;;;5094859;28;20023;-64
2021/01/24 06:34:55;;;;;;;63.13;31.75;;;;;;;;;;5094998;28;20046;-62
2021/01/24 06:37:26;;;;;;;37.97;19.45;;;;;;;;;;5094491;28;20028;-61
2021/01/24 06:39:53;;;;;;;36.28;18.48;;;;;;;;;;5093413;28;20024;-62
2021/01/24 06:42:38;;;;;;;40.80;20.83;;;;;;;;;;5094273;28;20047;-62
2021/01/24 06:45:24;;;;;;;26.92;13.30;;;;;;;;;;5092884;28;20028;-63
2021/01/24 06:47:50;;;;;;;53.35;23.92;;;;;;;;;;5094240;28;20515;-63
2021/01/24 06:50:35;;;;;;;82.72;37.95;;;;;;;;;;5094240;28;20143;-63
2021/01/24 06:53:03;;;;;;;64.30;35.67;;;;;;;;;;5094597;28;20412;-63
2021/01/24 06:55:29;;;;;;;52.67;25.75;;;;;;;;;;5094643;28;20078;-62
2021/01/24 06:57:55;;;;;;;44.10;27.38;;;;;;;;;;5093964;28;20020;-62
2021/01/24 07:00:22;;;;;;;51.30;29.05;;;;;;;;;;5094356;28;20499;-62
2021/01/24 07:02:49;;;;;;;48.20;27.83;;;;;;;;;;5094272;28;20039;-62
2021/01/24 07:05:19;;;;;;;41.40;24.55;;;;;;;;;;5094015;28;20483;-63
2021/01/24 07:07:49;;;;;;;28.58;16.90;;;;;;;;;;5094199;28;20424;-62
2021/01/24 07:10:34;;;;;;;36.97;20.42;;;;;;;;;;5094123;28;20169;-62
2021/01/24 07:13:00;;;;;;;32.90;17.20;;;;;;;;;;5093724;28;20472;-62
2021/01/24 07:15:26;;;;;;;22.98;13.10;;;;;;;;;;5094304;28;20044;-63
2021/01/24 07:17:58;;;;;;;22.67;13.85;;;;;;;;;;5094058;28;20020;-62
2021/01/24 07:20:24;;;;;;;29.65;17.27;;;;;;;;;;5093018;28;20097;-63
2021/01/24 07:22:54;;;;;;;26.50;17.00;;;;;;;;;;5093884;28;20035;-62
2021/01/24 07:25:20;;;;;;;32.25;16.77;;;;;;;;;;5093502;28;20042;-62
2021/01/24 07:27:46;;;;;;;30.40;17.48;;;;;;;;;;5093777;28;20031;-62
2021/01/24 07:30:13;;;;;;;42.00;22.40;;;;;;;;;;5093644;28;20472;-62
2021/01/24 07:32:40;;;;;;;42.95;24.27;;;;;;;;;;5093215;28;20018;-62
2021/01/24 07:35:06;;;;;;;51.97;29.60;;;;;;;;;;5093830;28;20472;-62
2021/01/24 07:37:32;;;;;;;107.63;56.25;;;;;;;;;;5093640;28;20491;-63
2021/01/24 07:39:58;;;;;;;105.38;58.33;;;;;;;;;;5093151;28;20457;-62
2021/01/24 07:42:25;;;;;;;92.28;53.13;;;;;;;;;;5093557;28;20505;-62
2021/01/24 07:44:51;;;;;;;95.70;59.72;;;;;;;;;;5093464;28;20483;-62
2021/01/24 07:47:17;;;;;;;117.38;69.70;;;;;;;;;;5092867;28;20092;-63
2021/01/24 07:49:43;;;;;;;151.00;86.88;;;;;;;;;;5093394;28;20024;-62
2021/01/24 07:52:10;;;;;;;163.70;95.78;;;;;;;;;;5092224;28;20468;-62
2021/01/24 07:54:37;;;;;;;151.00;86.53;;;;;;;;;;5092323;28;20432;-62
2021/01/24 07:57:05;;;;;;;117.55;65.97;;;;;;;;;;5091931;28;20043;-62
2021/01/24 07:59:31;;;;;;;83.97;49.67;;;;;;;;;;5093156;28;20427;-62
2021/01/24 08:01:58;;;;;;;96.03;54.33;;;;;;;;;;5092674;28;20388;-62
2021/01/24 08:04:24;;;;;;;80.47;50.10;;;;;;;;;;5093062;28;20602;-62
2021/01/24 08:06:52;;;;;;;69.55;44.58;;;;;;;;;;5093140;28;20242;-62
2021/01/24 08:09:18;;;;;;;56.33;35.45;;;;;;;;;;5091215;28;20119;-62
2021/01/24 08:11:45;;;;;;;46.30;25.88;;;;;;;;;;5093131;28;20054;-62
2021/01/24 08:14:11;;;;;;;43.55;27.25;;;;;;;;;;5093021;28;20517;-62
2021/01/24 08:16:48;;;;;;;62.85;39.92;;;;;;;;;;5092540;28;20047;-63
2021/01/24 08:19:17;;;;;;;53.88;29.77;;;;;;;;;;5092941;28;20531;-63
2021/01/24 08:21:44;;;;;;;131.45;74.70;;;;;;;;;;5092475;28;20035;-63
2021/01/24 08:24:12;;;;;;;173.27;109.13;;;;;;;;;;5092799;28;20028;-63
2021/01/24 08:26:38;;;;;;;98.13;60.58;;;;;;;;;;5092753;28;20031;-63
2021/01/24 08:29:05;;;;;;;80.95;50.97;;;;;;;;;;5092287;28;20036;-63
2021/01/24 08:31:32;;;;;;;60.95;38.60;;;;;;;;;;5092817;28;20028;-63
2021/01/24 08:33:58;;;;;;;94.18;58.83;;;;;;;;;;5091486;28;20028;-62
2021/01/24 08:36:26;;;;;;;54.58;34.97;;;;;;;;;;5092271;28;20476;-62
2021/01/24 08:38:56;;;;;;;68.00;46.85;;;;;;;;;;5092633;28;20020;-63
2021/01/24 08:41:36;;;;;;;52.78;34.53;;;;;;;;;;5092956;28;20100;-62
2021/01/24 08:44:15;;;;;;;74.80;45.90;;;;;;;;;;5090721;28;20124;-62
2021/01/24 08:46:42;;;;;;;46.58;28.30;;;;;;;;;;5092469;28;20030;-62
2021/01/24 08:49:12;;;;;;;34.35;18.42;;;;;;;;;;5092402;28;20047;-63
2021/01/24 08:51:55;;;;;;;47.88;26.08;;;;;;;;;;5092160;28;20442;-63
2021/01/24 08:54:32;;;;;;;50.25;30.80;;;;;;;;;;5092408;28;20046;-63
2021/01/24 08:57:20;;;;;;;39.70;25.40;;;;;;;;;;5092001;28;20036;-63
2021/01/24 08:59:49;;;;;;;41.00;25.48;;;;;;;;;;5092635;28;20024;-63
2021/01/24 09:02:15;;;;;;;40.95;22.13;;;;;;;;;;5090987;28;20063;-63
2021/01/24 09:04:47;;;;;;;43.00;27.48;;;;;;;;;;5093051;28;20028;-63
2021/01/24 09:07:15;;;;;;;57.22;35.38;;;;;;;;;;5096653;28;20028;-62
2021/01/24 09:09:45;;;;;;;51.95;30.95;;;;;;;;;;5096604;28;20039;-62
2021/01/24 09:12:13;;;;;;;56.08;32.33;;;;;;;;;;5095943;28;20031;-62
2021/01/24 09:14:39;;;;;;;37.25;21.90;;;;;;;;;;5095008;28;20380;-62
2021/01/24 09:17:07;;;;;;;41.17;25.52;;;;;;;;;;5096188;28;20443;-62
2021/01/24 09:19:34;;;;;;;46.53;22.25;;;;;;;;;;5094518;28;20048;-63
2021/01/24 09:22:00;;;;;;;29.67;18.70;;;;;;;;;;5096215;28;20056;-63
2021/01/24 09:24:27;;;;;;;35.55;20.08;;;;;;;;;;5096149;28;20069;-63
2021/01/24 09:26:53;;;;;;;30.13;16.98;;;;;;;;;;5095771;28;20016;-63
2021/01/24 09:29:20;;;;;;;22.52;13.35;;;;;;;;;;5096225;28;20033;-63
2021/01/24 09:31:46;;;;;;;12.98;6.80;;;;;;;;;;5096163;28;20471;-62
2021/01/24 09:34:12;;;;;;;41.72;18.60;;;;;;;;;;5096199;28;20085;-62
2021/01/24 09:36:38;;;;;;;22.60;12.23;;;;;;;;;;5095754;28;20552;-62
2021/01/24 09:39:05;;;;;;;17.25;9.43;;;;;;;;;;5093824;28;20431;-61
2021/01/24 09:41:32;;;;;;;15.05;9.10;;;;;;;;;;5095002;28;20023;-63
2021/01/24 09:43:58;;;;;;;26.63;17.10;;;;;;;;;;5094389;28;20128;-63
2021/01/24 09:46:24;;;;;;;17.73;9.40;;;;;;;;;;5094149;28;20099;-63
2021/01/24 09:48:50;;;;;;;17.92;7.70;;;;;;;;;;5109817;28;20095;-62
2021/01/24 09:51:17;;;;;;;32.00;15.52;;;;;;;;;;5110009;28;20525;-62
2021/01/24 09:53:43;;;;;;;48.65;21.80;;;;;;;;;;5094517;28;20082;-62
2021/01/24 09:56:09;;;;;;;35.95;14.25;;;;;;;;;;5095036;28;20513;-62
2021/01/24 09:58:35;;;;;;;31.50;13.13;;;;;;;;;;5095541;28;20034;-63
2021/01/24 10:01:01;;;;;;;28.42;14.65;;;;;;;;;;5093834;28;20027;-63
2021/01/24 10:03:28;;;;;;;25.08;13.77;;;;;;;;;;5094085;28;20024;-64
2021/01/24 10:05:54;;;;;;;25.45;12.07;;;;;;;;;;5095354;28;20091;-63
2021/01/24 10:08:20;;;;;;;14.85;6.38;;;;;;;;;;5095035;28;20035;-63
2021/01/24 10:10:46;;;;;;;16.90;8.43;;;;;;;;;;5095534;28;20472;-62
2021/01/24 10:13:15;;;;;;;17.92;9.38;;;;;;;;;;5095147;28;20032;-62
2021/01/24 10:15:42;;;;;;;18.52;10.50;;;;;;;;;;5110053;28;20035;-62
2021/01/24 10:18:08;;;;;;;21.20;11.82;;;;;;;;;;5094616;28;20031;-62
2021/01/24 10:20:35;;;;;;;17.65;10.23;;;;;;;;;;5095045;28;20028;-62
2021/01/24 10:23:01;;;;;;;27.13;13.73;;;;;;;;;;5094687;28;20142;-63
2021/01/24 10:25:27;;;;;;;18.60;10.13;;;;;;;;;;5095066;28;20024;-62
2021/01/24 10:27:53;;;;;;;19.60;10.52;;;;;;;;;;5095101;28;20016;-62
2021/01/24 10:30:20;;;;;;;19.67;9.15;;;;;;;;;;5094271;28;20399;-62
2021/01/24 10:32:46;;;;;;;27.40;16.10;;;;;;;;;;5094859;28;20113;-62
2021/01/24 10:35:12;;;;;;;23.70;13.57;;;;;;;;;;5094363;28;20024;-62
2021/01/24 10:37:39;;;;;;;11.80;5.57;;;;;;;;;;5093286;28;20031;-62
2021/01/24 10:40:05;;;;;;;13.80;8.15;;;;;;;;;;5110358;28;20111;-62
2021/01/24 10:42:31;;;;;;;16.27;8.48;;;;;;;;;;5094235;28;20020;-62
2021/01/24 10:44:58;;;;;;;17.10;9.63;;;;;;;;;;5094790;28;20020;-63
2021/01/24 10:47:25;;;;;;;16.77;9.80;;;;;;;;;;5094555;28;20028;-63
2021/01/24 10:49:51;;;;;;;12.00;6.80;;;;;;;;;;5094072;28;20077;-62
2021/01/24 10:52:18;;;;;;;11.60;6.85;;;;;;;;;;5094370;28;20091;-63
2021/01/24 10:54:44;;;;;;;13.63;5.90;;;;;;;;;;5094370;28;20024;-64
2021/01/24 10:57:10;;;;;;;28.13;7.72;;;;;;;;;;5093873;28;20016;-62
2021/01/24 10:59:36;;;;;;;22.25;10.40;;;;;;;;;;5094335;28;20024;-63
2021/01/24 11:02:02;;;;;;;28.77;15.32;;;;;;;;;;5094547;28;20012;-62
2021/01/24 11:04:32;;;;;;;28.23;15.35;;;;;;;;;;5094049;28;20032;-63
2021/01/24 11:06:58;;;;;;;19.45;9.85;;;;;;;;;;5094485;28;20023;-64
2021/01/24 11:09:24;;;;;;;23.45;13.50;;;;;;;;;;5094517;28;20064;-64
2021/01/24 11:11:51;;;;;;;19.95;11.35;;;;;;;;;;5093833;28;20502;-63
2021/01/24 11:14:17;;;;;;;19.92;10.38;;;;;;;;;;5094120;28;20032;-63
2021/01/24 11:16:43;;;;;;;23.05;10.95;;;;;;;;;;5094122;28;20020;-63
2021/01/24 11:19:09;;;;;;;25.33;11.57;;;;;;;;;;5093680;28;20419;-63
2021/01/24 11:21:36;;;;;;;15.23;8.35;;;;;;;;;;5093957;28;20090;-63
2021/01/24 11:24:02;;;;;;;26.30;11.15;;;;;;;;;;5109724;28;20034;-63
2021/01/24 11:26:28;;;;;;;12.32;6.50;;;;;;;;;;5093744;28;20034;-63
2021/01/24 11:28:54;;;;;;;26.80;13.35;;;;;;;;;;5092904;28;20028;-63
2021/01/24 11:31:20;;;;;;;22.98;12.95;;;;;;;;;;5092563;28;20499;-63
2021/01/24 11:33:48;;;;;;;13.88;6.18;;;;;;;;;;5092016;28;20020;-63
2021/01/24 11:36:14;;;;;;;17.42;9.02;;;;;;;;;;5093919;28;20017;-63
2021/01/24 11:38:41;;;;;;;11.77;5.90;;;;;;;;;;5109045;28;20023;-63
2021/01/24 11:41:07;;;;;;;10.43;5.47;;;;;;;;;;5093499;28;20040;-63
2021/01/24 11:43:33;;;;;;;10.15;5.03;;;;;;;;;;5109335;28;20020;-63
2021/01/24 11:45:59;;;;;;;11.50;5.97;;;;;;;;;;5093305;28;20031;-63
2021/01/24 11:48:26;;;;;;;18.25;8.68;;;;;;;;;;5093296;28;20487;-64
2021/01/24 11:50:53;;;;;;;16.05;7.95;;;;;;;;;;5093428;28;20461;-64
2021/01/24 11:53:20;;;;;;;12.65;5.88;;;;;;;;;;5092903;28;20020;-63
2021/01/24 11:55:47;;;;;;;16.67;7.63;;;;;;;;;;5108912;28;20384;-63
2021/01/24 11:58:15;;;;;;;14.25;6.32;;;;;;;;;;5108749;28;20352;-62
2021/01/24 12:00:41;;;;;;;8.48;4.03;;;;;;;;;;5108307;28;20476;-63
2021/01/24 12:03:08;;;;;;;13.95;6.60;;;;;;;;;;5093173;28;20025;-64
2021/01/24 12:05:34;;;;;;;12.27;5.97;;;;;;;;;;5093182;28;20028;-63
2021/01/24 12:08:00;;;;;;;13.32;5.40;;;;;;;;;;5092736;28;20468;-63
2021/01/24 12:10:26;;;;;;;10.77;5.45;;;;;;;;;;5093139;28;20089;-63
2021/01/24 12:12:52;;;;;;;17.50;8.57;;;;;;;;;;5093004;28;20020;-64
2021/01/24 12:15:19;;;;;;;9.40;4.85;;;;;;;;;;5108189;28;20031;-64
2021/01/24 12:17:45;;;;;;;11.77;6.05;;;;;;;;;;5108514;28;20507;-64
2021/01/24 12:20:11;;;;;;;12.23;6.40;;;;;;;;;;5108503;28;20434;-64
2021/01/24 12:22:38;;;;;;;19.98;10.52;;;;;;;;;;5092541;28;20031;-62
2021/01/24 12:25:04;;;;;;;20.33;6.38;;;;;;;;;;5091457;28;20380;-62
2021/01/24 12:27:30;;;;;;;8.48;4.55;;;;;;;;;;5092874;28;20460;-62
2021/01/24 12:29:56;;;;;;;10.77;4.97;;;;;;;;;;5092308;28;20043;-63
2021/01/24 12:32:22;;;;;;;10.68;5.20;;;;;;;;;;5092722;28;20016;-62
2021/01/24 12:34:49;;;;;;;11.15;4.90;;;;;;;;;;5092599;28;20370;-62
2021/01/24 12:37:15;;;;;;;12.40;5.63;;;;;;;;;;5092172;28;20024;-63
2021/01/24 12:39:41;;;;;;;17.27;8.48;;;;;;;;;;5092249;28;20055;-62
2021/01/24 12:42:07;;;;;;;12.25;5.00;;;;;;;;;;5092086;28;20013;-62
2021/01/24 12:44:33;;;;;;;9.23;5.25;;;;;;;;;;5092579;28;20786;-62
2021/01/24 12:46:59;;;;;;;10.40;6.57;;;;;;;;;;5092587;28;20052;-62
2021/01/24 12:49:26;;;;;;;17.13;8.65;;;;;;;;;;5091875;28;20041;-64
2021/01/24 12:51:53;;;;;;;12.27;6.30;;;;;;;;;;5092287;28;20056;-62
2021/01/24 12:54:19;;;;;;;20.20;9.20;;;;;;;;;;5092423;28;20048;-62
2021/01/24 12:56:45;;;;;;;22.20;12.25;;;;;;;;;;5107570;28;20439;-62
2021/01/24 12:59:11;;;;;;;15.90;7.43;;;;;;;;;;5092365;28;20038;-62
2021/01/24 13:01:37;;;;;;;17.25;9.88;;;;;;;;;;5092277;28;20274;-63
2021/01/24 13:04:04;;;;;;;20.58;10.45;;;;;;;;;;5107504;28;20469;-62
2021/01/24 13:06:30;;;;;;;15.35;7.22;;;;;;;;;;5092371;28;20075;-62
2021/01/24 13:08:56;;;;;;;12.15;7.15;;;;;;;;;;5092394;28;20028;-62
2021/01/24 13:11:22;;;;;;;12.93;5.68;;;;;;;;;;5091762;28;20020;-62
2021/01/24 13:13:49;;;;;;;28.98;11.93;;;;;;;;;;5092167;28;20028;-63
2021/01/24 13:16:15;;;;;;;17.60;8.52;;;;;;;;;;5092189;28;20016;-63
2021/01/24 13:18:41;;;;;;;10.48;4.45;;;;;;;;;;5091799;28;20380;-63
2021/01/24 13:21:07;;;;;;;11.43;4.78;;;;;;;;;;5092231;28;20028;-63
2021/01/24 13:23:34;;;;;;;10.20;4.32;;;;;;;;;;5092341;28;20020;-63
2021/01/24 13:26:00;;;;;;;11.65;5.07;;;;;;;;;;5091972;28;20480;-63
2021/01/24 13:28:26;;;;;;;12.45;6.43;;;;;;;;;;5092155;28;20387;-63
2021/01/24 13:30:52;;;;;;;19.55;9.43;;;;;;;;;;5092108;28;20035;-63
2021/01/24 13:33:18;;;;;;;10.80;5.82;;;;;;;;;;5091557;28;20526;-62
2021/01/24 13:35:45;;;;;;;8.60;4.55;;;;;;;;;;5091942;28;20089;-62
2021/01/24 13:38:11;;;;;;;12.55;6.53;;;;;;;;;;5091475;28;20023;-62
2021/01/24 13:40:37;;;;;;;19.25;11.20;;;;;;;;;;5091836;28;20047;-62
2021/01/24 13:43:04;;;;;;;16.88;9.90;;;;;;;;;;5091969;28;20020;-62
2021/01/24 13:45:31;;;;;;;12.63;6.57;;;;;;;;;;5091734;28;20023;-62
2021/01/24 13:47:57;;;;;;;19.98;10.65;;;;;;;;;;5091977;28;20123;-64
2021/01/24 13:50:23;;;;;;;17.15;9.00;;;;;;;;;;5091574;28;20036;-62
2021/01/24 13:52:49;;;;;;;17.48;7.85;;;;;;;;;;5094144;28;20040;-62
2021/01/24 13:55:15;;;;;;;21.88;10.90;;;;;;;;;;5095499;28;20357;-62
2021/01/24 13:57:41;;;;;;;24.50;11.25;;;;;;;;;;5095438;28;20089;-62
2021/01/24 14:00:09;;;;;;;13.00;5.75;;;;;;;;;;5095261;28;20020;-62
2021/01/24 14:02:35;;;;;;;11.52;5.80;;;;;;;;;;5095475;28;20101;-63
2021/01/24 14:05:01;;;;;;;17.55;9.02;;;;;;;;;;5095521;28;20027;-63
2021/01/24 14:07:28;;;;;;;16.10;7.05;;;;;;;;;;5095152;28;20170;-63
2021/01/24 14:09:54;;;;;;;15.65;6.05;;;;;;;;;;5095267;28;20039;-63
2021/01/24 14:12:20;;;;;;;16.20;7.65;;;;;;;;;;5095258;28;20022;-63
2021/01/24 14:14:46;;;;;;;17.10;8.57;;;;;;;;;;5094855;28;20031;-63
2021/01/24 14:17:12;;;;;;;30.48;13.73;;;;;;;;;;5095019;28;20093;-62
2021/01/24 14:19:39;;;;;;;18.83;7.88;;;;;;;;;;5095134;28;20125;-63
2021/01/24 14:22:05;;;;;;;13.52;6.63;;;;;;;;;;5094603;28;20024;-63
2021/01/24 14:24:31;;;;;;;20.75;8.15;;;;;;;;;;5095123;28;20031;-63
2021/01/24 14:26:57;;;;;;;16.10;7.95;;;;;;;;;;5095213;28;20357;-63